Monday, November 24, 2014
17:53 UTC
  |  Log In   |  Register Free
Airport Search:

Lincoln Airport
(KLNK)

FAA data valid effective November 13, 2014 - January 08, 2015 (unless otherwise noted).

 
 
 
 
 
 
 
 
 
 
 
 
 
 

Current Aviation Weather for Lincoln Airport (KLNK)

The most recent METAR observation for KLNK was updated at: 1717
METAR Summary (Translated METAR)
KLNK
241654Z 32018G29KT 10SM OVC029 00/M08 A2977 RMK AO2 PK WND 32036/1603 SLP090 T00001078
KAHQ
241655Z AUTO 32017G28KT 10SM OVC026 M01/M08 A2975 RMK AO2 T10101076
(24.6 nm NE from KLNK)
KBIE
241655Z AUTO 32020G25KT 10SM OVC033 01/M06 A2977 RMK AO2 T00131064
(33 nm SE from KLNK)
TAF Summary (Translated TAF)
KLNK
241720Z 2418/2518 32020G30KT P6SM SCT030 TEMPO 2418/2419 BKN030 FM242300 32015KT P6SM SKC FM250100 29008KT P6SM SKC FM251400 21008KT P6SM SCT030
  Airport Weather Conditions for KLNK

 Current Weather at LNK
32° F
Overcast and Breezy
Northwest winds at 20.7 mph
LNK NOAA Radar

Pressure: 29.77 in
Humidity: 56%
Wind: from the Northwest at 20.7 gusting to 33.4 MPH (18 gusting to 29 KT)
Dew Point: 18.0°F
Visibility: 10.00 mi


Airport Weather Forecast for KLNK

Translated METAR and TAF for KLNK
Translated METAR for KLNK (1748 UTC 24 November 2014)
found at http://aviationweather.gov/adds/metars/
 
METAR text: KLNK 241713Z 33022G31KT 10SM OVC030 00/M08 A2978 RMK AO2 PK WND 32031/1711 T00001078
Conditions at: KLNK (LINCOLN , NE, US) observed 1713 UTC 24 November 2014
Temperature: 0.0°C (32°F)
Dewpoint: -7.8°C (18°F) [RH = 56%]
Pressure (altimeter): 29.78 inches Hg (1008.5 mb)
Winds: from the NNW (330 degrees) at 25 MPH (22 knots; 11.4 m/s)
gusting to 36 MPH (31 knots; 16.1 m/s)
Visibility: 10 or more miles (16+ km)
Ceiling: 3000 feet AGL
Clouds: overcast cloud deck at 3000 feet AGL
Weather: no significant weather observed at this time
Translated TAF for KLNK
Forecast for: KLNK (LINCOLN , NE, US)
TAF Text: KLNK 241720Z 2418/2518 32020G30KT P6SM SCT030
Forecast period: 1800 to 2300 UTC 24 November 2014
Forecast type: FROM: standard forecast or significant change
Winds: from the NW (320 degrees) at 23 MPH (20 knots; 10.4 m/s)
gusting to 34 MPH (30 knots; 15.6 m/s)
Visibility: 6 or more miles (10+ km)
Clouds: scattered clouds at 3000 feet AGL
Weather: no significant weather forecast for this period
TAF Text: TEMPO 2418/2419 BKN030
Forecast period: 1800 to 1900 UTC 24 November 2014
Forecast type: TEMPORARY: The following changes expected for less than half the time period
Ceiling: 3000 feet AGL
Clouds: broken clouds at 3000 feet AGL
Weather: no significant weather forecast for this period
TAF Text: FM242300 32015KT P6SM SKC
Forecast period: 2300 UTC 24 November 2014 to 0100 UTC 25 November 2014
Forecast type: FROM: standard forecast or significant change
Winds: from the NW (320 degrees) at 17 MPH (15 knots; 7.8 m/s)
Visibility: 6 or more miles (10+ km)
Clouds: clear skies
Weather: no significant weather forecast for this period
TAF Text: FM250100 29008KT P6SM SKC
Forecast period: 0100 to 1400 UTC 25 November 2014
Forecast type: FROM: standard forecast or significant change
Winds: from the WNW (290 degrees) at 9 MPH (8 knots; 4.2 m/s)
Visibility: 6 or more miles (10+ km)
Clouds: clear skies
Weather: no significant weather forecast for this period
TAF Text: FM251400 21008KT P6SM SCT030
Forecast period: 1400 to 1800 UTC 25 November 2014
Forecast type: FROM: standard forecast or significant change
Winds: from the SSW (210 degrees) at 9 MPH (8 knots; 4.2 m/s)
Visibility: 6 or more miles (10+ km)
Clouds: scattered clouds at 3000 feet AGL
Weather: no significant weather forecast for this period

Find All Airport Services Find A Hotel Find A Rental Car Find A Golf Course Find A Restaurant $100 Hamburger



FBO's on the Field
FBO Company Facility Photos Services Transportation Aviation Fuel Prices: Prices include tax
Catering Weather Repair Courtesy Rental Type 100LL JetA JetA+ MOGAS 8087
 
Duncan Aviation

This FBO has not yet been rated
FS:Avfuel
Last Updated: Nov-18
Login to update fuel prices
SS:
Contact Duncan AviationMore FBO Information
 
Silverhawk Aviation

This FBO has not yet been rated
FS:Phillips 66
Last Updated: Nov-18
Login to update fuel prices
SS:
Contact Silverhawk AviationMore FBO Information
 
Add another FBO Facility Photos Catering Weather Repair Courtesy Rental Type 100LL JetA JetA+ MOGAS 8087
Services Transportation Aviation Fuel Prices: Prices include tax


model-print
model-print
model-print
model-print